CheckWX is a tool to help pilots better visualize weather data.  It is not intended as a substitute for an official pre-flight weather briefing.

08:05:45 UTC

KVCT TAF
Victoria Regional Airport
Victoria, Texas, USA
KVCT 190539Z 1906/2006 03005KT P6SM OVC100 FM191800 10010KT P6SM SCT035 BKN100 FM200400 06005KT P6SM SCT035 BKN100

Mar-19@
06:00 UTC

Mar-19 @ 06:00 UTC

Mar-19@
18:00 UTC

Mar-19 @ 18:00 UTC

KVCT 190539Z 1906/2006 03005KT P6SM OVC100
Wind
  • 030° at 5 KTS
Cloud Levels
  • Overcast at 10,000' AGL

Mar-19@
18:00 UTC

Mar-19 @ 18:00 UTC

Mar-20@
04:00 UTC

Mar-20 @ 04:00 UTC

FM191800 10010KT P6SM SCT035 BKN100

From

From Standard forecast or significant change

Wind
  • 100° at 10 KTS
Cloud Levels
  • Scattered at 3,500' AGL
  • Broken at 10,000' AGL

Mar-20@
04:00 UTC

Mar-20 @ 04:00 UTC

Mar-20@
06:00 UTC

Mar-20 @ 06:00 UTC

FM200400 06005KT P6SM SCT035 BKN100

From

From Standard forecast or significant change

Wind
  • 060° at 5 KTS
Cloud Levels
  • Scattered at 3,500' AGL
  • Broken at 10,000' AGL